Terminal Aerodrome Forecast
Issued by NWS Goodland, KS

Home | Current Version | Previous Version | Text Only | Print | Product List | Glossary On
Versions: 1 2 3 4 5 6 7 8 9 10 11 12 13 14 15 16 17 18
000
FTUS43 KGLD 301120
TAFGLD
TAF
KGLD 301120Z 3012/3112 VRB05KT P6SM SCT080
     FM301400 20010KT P6SM SKC
     FM301700 18017G25KT P6SM SCT120
     FM310300 16013KT P6SM VCSH SCT070 BKN150=

USA.gov is the U.S. government's official web portal to all federal, state and local government web resources and services.